sensor_id;sensor_type;location;lat;lon;timestamp;temperature;humidity
16958;DHT22;8595;52.542;11.974;2023-08-08T00:01:35;13.90;99.90
16958;DHT22;8595;52.542;11.974;2023-08-08T00:04:02;13.90;99.90
16958;DHT22;8595;52.542;11.974;2023-08-08T00:06:30;13.90;99.90
16958;DHT22;8595;52.542;11.974;2023-08-08T00:08:57;13.80;99.90
16958;DHT22;8595;52.542;11.974;2023-08-08T00:11:23;13.80;99.90
16958;DHT22;8595;52.542;11.974;2023-08-08T00:13:50;13.70;99.90
16958;DHT22;8595;52.542;11.974;2023-08-08T00:16:17;13.70;99.90
16958;DHT22;8595;52.542;11.974;2023-08-08T00:18:44;13.70;99.90
16958;DHT22;8595;52.542;11.974;2023-08-08T00:21:10;13.70;99.90
16958;DHT22;8595;52.542;11.974;2023-08-08T00:23:39;13.60;99.90
16958;DHT22;8595;52.542;11.974;2023-08-08T00:26:05;13.60;99.90
16958;DHT22;8595;52.542;11.974;2023-08-08T00:28:32;13.70;99.90
16958;DHT22;8595;52.542;11.974;2023-08-08T00:30:59;13.70;99.90
16958;DHT22;8595;52.542;11.974;2023-08-08T00:33:26;13.60;99.90
16958;DHT22;8595;52.542;11.974;2023-08-08T00:35:52;13.60;99.90
16958;DHT22;8595;52.542;11.974;2023-08-08T00:38:19;13.60;99.90
16958;DHT22;8595;52.542;11.974;2023-08-08T00:40:47;13.60;99.90
16958;DHT22;8595;52.542;11.974;2023-08-08T00:43:14;13.60;99.90
16958;DHT22;8595;52.542;11.974;2023-08-08T00:45:42;13.60;99.90
16958;DHT22;8595;52.542;11.974;2023-08-08T00:48:09;13.50;99.90
16958;DHT22;8595;52.542;11.974;2023-08-08T00:50:36;13.60;99.90
16958;DHT22;8595;52.542;11.974;2023-08-08T00:53:04;13.50;99.90
16958;DHT22;8595;52.542;11.974;2023-08-08T00:55:31;13.50;99.90
16958;DHT22;8595;52.542;11.974;2023-08-08T00:58:00;13.50;99.90
16958;DHT22;8595;52.542;11.974;2023-08-08T01:00:27;13.50;99.90
16958;DHT22;8595;52.542;11.974;2023-08-08T01:02:53;13.40;99.90
16958;DHT22;8595;52.542;11.974;2023-08-08T01:05:25;13.40;99.90
16958;DHT22;8595;52.542;11.974;2023-08-08T01:08:02;13.40;99.90
16958;DHT22;8595;52.542;11.974;2023-08-08T01:10:34;13.40;99.90
16958;DHT22;8595;52.542;11.974;2023-08-08T01:13:07;13.30;99.90
16958;DHT22;8595;52.542;11.974;2023-08-08T01:15:35;13.30;99.90
16958;DHT22;8595;52.542;11.974;2023-08-08T01:18:04;13.40;99.90
16958;DHT22;8595;52.542;11.974;2023-08-08T01:20:32;13.40;99.90
16958;DHT22;8595;52.542;11.974;2023-08-08T01:23:09;13.40;99.90
16958;DHT22;8595;52.542;11.974;2023-08-08T01:25:38;13.30;99.90
16958;DHT22;8595;52.542;11.974;2023-08-08T01:28:07;13.30;99.90
16958;DHT22;8595;52.542;11.974;2023-08-08T01:30:33;13.30;99.90
16958;DHT22;8595;52.542;11.974;2023-08-08T01:33:00;13.30;99.90
16958;DHT22;8595;52.542;11.974;2023-08-08T01:35:37;13.30;99.90
16958;DHT22;8595;52.542;11.974;2023-08-08T01:38:10;13.30;99.90
16958;DHT22;8595;52.542;11.974;2023-08-08T01:40:39;13.30;99.90
16958;DHT22;8595;52.542;11.974;2023-08-08T01:43:09;13.30;99.90
16958;DHT22;8595;52.542;11.974;2023-08-08T01:45:37;13.30;99.90
16958;DHT22;8595;52.542;11.974;2023-08-08T01:48:10;13.30;99.90
16958;DHT22;8595;52.542;11.974;2023-08-08T01:50:37;13.30;99.90
16958;DHT22;8595;52.542;11.974;2023-08-08T01:53:04;13.30;99.90
16958;DHT22;8595;52.542;11.974;2023-08-08T01:55:31;13.30;99.90
16958;DHT22;8595;52.542;11.974;2023-08-08T01:58:00;13.30;99.90
16958;DHT22;8595;52.542;11.974;2023-08-08T02:00:26;13.30;99.90
16958;DHT22;8595;52.542;11.974;2023-08-08T02:02:53;13.30;99.90
16958;DHT22;8595;52.542;11.974;2023-08-08T02:05:20;13.30;99.90
16958;DHT22;8595;52.542;11.974;2023-08-08T02:07:47;13.30;99.90
16958;DHT22;8595;52.542;11.974;2023-08-08T02:10:14;13.40;99.90
16958;DHT22;8595;52.542;11.974;2023-08-08T02:12:41;13.30;99.90
16958;DHT22;8595;52.542;11.974;2023-08-08T02:15:09;13.40;99.90
16958;DHT22;8595;52.542;11.974;2023-08-08T02:17:37;13.30;99.90
16958;DHT22;8595;52.542;11.974;2023-08-08T02:20:05;13.40;99.90
16958;DHT22;8595;52.542;11.974;2023-08-08T02:22:32;13.30;99.90
16958;DHT22;8595;52.542;11.974;2023-08-08T02:25:00;13.40;99.90
16958;DHT22;8595;52.542;11.974;2023-08-08T02:27:26;13.20;99.90
16958;DHT22;8595;52.542;11.974;2023-08-08T02:29:53;13.40;99.90
16958;DHT22;8595;52.542;11.974;2023-08-08T02:32:21;13.30;99.90
16958;DHT22;8595;52.542;11.974;2023-08-08T02:34:48;13.30;99.90
16958;DHT22;8595;52.542;11.974;2023-08-08T02:37:15;13.30;99.90
16958;DHT22;8595;52.542;11.974;2023-08-08T02:39:42;13.30;99.90
16958;DHT22;8595;52.542;11.974;2023-08-08T02:42:09;13.30;99.90
16958;DHT22;8595;52.542;11.974;2023-08-08T02:44:36;13.40;99.90
16958;DHT22;8595;52.542;11.974;2023-08-08T02:47:03;13.40;99.90
16958;DHT22;8595;52.542;11.974;2023-08-08T02:49:31;13.40;99.90
16958;DHT22;8595;52.542;11.974;2023-08-08T02:51:59;13.40;99.90
16958;DHT22;8595;52.542;11.974;2023-08-08T02:54:25;13.40;99.90
16958;DHT22;8595;52.542;11.974;2023-08-08T02:56:52;13.40;99.90
16958;DHT22;8595;52.542;11.974;2023-08-08T02:59:19;13.50;99.90
16958;DHT22;8595;52.542;11.974;2023-08-08T03:01:46;13.60;99.90
16958;DHT22;8595;52.542;11.974;2023-08-08T03:04:13;13.60;99.90
16958;DHT22;8595;52.542;11.974;2023-08-08T03:06:41;13.60;99.90
16958;DHT22;8595;52.542;11.974;2023-08-08T03:09:08;13.60;99.90
16958;DHT22;8595;52.542;11.974;2023-08-08T03:11:35;13.50;99.90
16958;DHT22;8595;52.542;11.974;2023-08-08T03:14:03;13.50;99.90
16958;DHT22;8595;52.542;11.974;2023-08-08T03:16:29;13.50;99.90
16958;DHT22;8595;52.542;11.974;2023-08-08T03:18:56;13.50;99.90
16958;DHT22;8595;52.542;11.974;2023-08-08T03:21:24;13.50;99.90
16958;DHT22;8595;52.542;11.974;2023-08-08T03:23:53;13.50;99.90
16958;DHT22;8595;52.542;11.974;2023-08-08T03:26:19;13.50;99.90
16958;DHT22;8595;52.542;11.974;2023-08-08T03:28:49;13.50;99.90
16958;DHT22;8595;52.542;11.974;2023-08-08T03:31:19;13.50;99.90
16958;DHT22;8595;52.542;11.974;2023-08-08T03:33:46;13.40;99.90
16958;DHT22;8595;52.542;11.974;2023-08-08T03:36:13;13.50;99.90
16958;DHT22;8595;52.542;11.974;2023-08-08T03:38:40;13.50;99.90
16958;DHT22;8595;52.542;11.974;2023-08-08T03:41:11;13.50;99.90
16958;DHT22;8595;52.542;11.974;2023-08-08T03:43:38;13.50;99.90
16958;DHT22;8595;52.542;11.974;2023-08-08T03:46:05;13.50;99.90
16958;DHT22;8595;52.542;11.974;2023-08-08T03:48:32;13.40;99.90
16958;DHT22;8595;52.542;11.974;2023-08-08T03:50:58;13.50;99.90
16958;DHT22;8595;52.542;11.974;2023-08-08T03:53:25;13.50;99.90
16958;DHT22;8595;52.542;11.974;2023-08-08T03:55:53;13.40;99.90
16958;DHT22;8595;52.542;11.974;2023-08-08T03:58:24;13.50;99.90
16958;DHT22;8595;52.542;11.974;2023-08-08T04:00:50;13.40;99.90
16958;DHT22;8595;52.542;11.974;2023-08-08T04:03:18;13.50;99.90
16958;DHT22;8595;52.542;11.974;2023-08-08T04:05:45;13.50;99.90
16958;DHT22;8595;52.542;11.974;2023-08-08T04:08:13;13.50;99.90
16958;DHT22;8595;52.542;11.974;2023-08-08T04:10:40;13.50;99.90
16958;DHT22;8595;52.542;11.974;2023-08-08T04:13:06;13.60;99.90
16958;DHT22;8595;52.542;11.974;2023-08-08T04:15:35;13.60;99.90
16958;DHT22;8595;52.542;11.974;2023-08-08T04:18:02;13.50;99.90
16958;DHT22;8595;52.542;11.974;2023-08-08T04:20:32;13.60;99.90
16958;DHT22;8595;52.542;11.974;2023-08-08T04:23:01;13.60;99.90
16958;DHT22;8595;52.542;11.974;2023-08-08T04:25:28;13.60;99.90
16958;DHT22;8595;52.542;11.974;2023-08-08T04:27:55;13.60;99.90
16958;DHT22;8595;52.542;11.974;2023-08-08T04:30:22;13.60;99.90
16958;DHT22;8595;52.542;11.974;2023-08-08T04:32:51;13.70;99.90
16958;DHT22;8595;52.542;11.974;2023-08-08T04:35:17;13.80;99.90
16958;DHT22;8595;52.542;11.974;2023-08-08T04:37:44;13.80;99.90
16958;DHT22;8595;52.542;11.974;2023-08-08T04:40:11;13.80;99.90
16958;DHT22;8595;52.542;11.974;2023-08-08T04:42:38;13.80;99.90
16958;DHT22;8595;52.542;11.974;2023-08-08T04:45:06;13.90;99.90
16958;DHT22;8595;52.542;11.974;2023-08-08T04:47:33;13.90;99.90
16958;DHT22;8595;52.542;11.974;2023-08-08T04:50:03;13.90;99.90
16958;DHT22;8595;52.542;11.974;2023-08-08T04:52:30;14.00;99.90
16958;DHT22;8595;52.542;11.974;2023-08-08T04:54:57;14.00;99.90
16958;DHT22;8595;52.542;11.974;2023-08-08T04:57:23;14.00;99.90
16958;DHT22;8595;52.542;11.974;2023-08-08T04:59:50;14.00;99.90
16958;DHT22;8595;52.542;11.974;2023-08-08T05:02:17;14.10;99.90
16958;DHT22;8595;52.542;11.974;2023-08-08T05:04:44;14.20;99.90
16958;DHT22;8595;52.542;11.974;2023-08-08T05:07:13;14.20;99.90
16958;DHT22;8595;52.542;11.974;2023-08-08T05:09:40;14.40;99.90
16958;DHT22;8595;52.542;11.974;2023-08-08T05:12:07;14.40;99.90
16958;DHT22;8595;52.542;11.974;2023-08-08T05:14:34;14.30;99.90
16958;DHT22;8595;52.542;11.974;2023-08-08T05:17:02;14.30;99.90
16958;DHT22;8595;52.542;11.974;2023-08-08T05:19:28;14.40;99.90
16958;DHT22;8595;52.542;11.974;2023-08-08T05:21:55;14.40;99.90
16958;DHT22;8595;52.542;11.974;2023-08-08T05:24:23;14.50;99.90
16958;DHT22;8595;52.542;11.974;2023-08-08T05:26:50;14.40;99.90
16958;DHT22;8595;52.542;11.974;2023-08-08T05:29:20;14.50;99.90
16958;DHT22;8595;52.542;11.974;2023-08-08T05:31:47;14.60;99.90
16958;DHT22;8595;52.542;11.974;2023-08-08T05:34:14;14.50;99.90
16958;DHT22;8595;52.542;11.974;2023-08-08T05:36:41;14.70;99.90
16958;DHT22;8595;52.542;11.974;2023-08-08T05:39:08;14.70;99.90
16958;DHT22;8595;52.542;11.974;2023-08-08T05:41:36;14.70;99.90
16958;DHT22;8595;52.542;11.974;2023-08-08T05:44:03;14.70;99.90
16958;DHT22;8595;52.542;11.974;2023-08-08T05:46:30;14.80;99.90
16958;DHT22;8595;52.542;11.974;2023-08-08T05:48:57;14.80;99.90
16958;DHT22;8595;52.542;11.974;2023-08-08T05:51:26;14.80;99.90
16958;DHT22;8595;52.542;11.974;2023-08-08T05:53:53;14.80;99.90
16958;DHT22;8595;52.542;11.974;2023-08-08T05:56:20;14.90;99.90
16958;DHT22;8595;52.542;11.974;2023-08-08T05:58:48;14.90;99.90
16958;DHT22;8595;52.542;11.974;2023-08-08T06:01:15;15.00;99.90
16958;DHT22;8595;52.542;11.974;2023-08-08T06:03:42;15.00;99.90
16958;DHT22;8595;52.542;11.974;2023-08-08T06:06:08;15.10;99.90
16958;DHT22;8595;52.542;11.974;2023-08-08T06:08:35;15.10;99.90
16958;DHT22;8595;52.542;11.974;2023-08-08T06:11:02;15.10;99.90
16958;DHT22;8595;52.542;11.974;2023-08-08T06:13:29;15.20;99.90
16958;DHT22;8595;52.542;11.974;2023-08-08T06:15:57;15.30;99.90
16958;DHT22;8595;52.542;11.974;2023-08-08T06:18:24;15.40;99.90
16958;DHT22;8595;52.542;11.974;2023-08-08T06:20:51;15.30;99.90
16958;DHT22;8595;52.542;11.974;2023-08-08T06:23:17;15.50;99.90
16958;DHT22;8595;52.542;11.974;2023-08-08T06:25:44;15.40;99.90
16958;DHT22;8595;52.542;11.974;2023-08-08T06:28:11;15.50;99.90
16958;DHT22;8595;52.542;11.974;2023-08-08T06:30:38;15.60;99.90
16958;DHT22;8595;52.542;11.974;2023-08-08T06:33:06;15.50;99.90
16958;DHT22;8595;52.542;11.974;2023-08-08T06:35:34;15.60;99.90
16958;DHT22;8595;52.542;11.974;2023-08-08T06:38:00;15.60;99.90
16958;DHT22;8595;52.542;11.974;2023-08-08T06:40:28;15.70;99.90
16958;DHT22;8595;52.542;11.974;2023-08-08T06:42:55;15.70;99.90
16958;DHT22;8595;52.542;11.974;2023-08-08T06:45:22;15.70;99.90
16958;DHT22;8595;52.542;11.974;2023-08-08T06:47:48;15.80;99.90
16958;DHT22;8595;52.542;11.974;2023-08-08T06:50:17;15.80;99.90
16958;DHT22;8595;52.542;11.974;2023-08-08T06:52:44;15.90;99.90
16958;DHT22;8595;52.542;11.974;2023-08-08T06:55:11;15.90;99.90
16958;DHT22;8595;52.542;11.974;2023-08-08T06:57:38;16.00;99.90
16958;DHT22;8595;52.542;11.974;2023-08-08T07:00:06;16.10;99.90
16958;DHT22;8595;52.542;11.974;2023-08-08T07:02:33;16.10;99.90
16958;DHT22;8595;52.542;11.974;2023-08-08T07:05:00;16.10;99.90
16958;DHT22;8595;52.542;11.974;2023-08-08T07:07:30;16.10;99.90
16958;DHT22;8595;52.542;11.974;2023-08-08T07:09:58;16.00;99.90
16958;DHT22;8595;52.542;11.974;2023-08-08T07:12:25;16.20;99.90
16958;DHT22;8595;52.542;11.974;2023-08-08T07:14:52;16.30;99.90
16958;DHT22;8595;52.542;11.974;2023-08-08T07:17:19;16.30;99.90
16958;DHT22;8595;52.542;11.974;2023-08-08T07:19:45;16.50;99.90
16958;DHT22;8595;52.542;11.974;2023-08-08T07:22:12;16.60;99.90
16958;DHT22;8595;52.542;11.974;2023-08-08T07:24:40;16.70;99.90
16958;DHT22;8595;52.542;11.974;2023-08-08T07:27:07;16.70;99.90
16958;DHT22;8595;52.542;11.974;2023-08-08T07:29:34;16.50;99.90
16958;DHT22;8595;52.542;11.974;2023-08-08T07:32:03;16.70;99.90
16958;DHT22;8595;52.542;11.974;2023-08-08T07:34:30;16.70;99.90
16958;DHT22;8595;52.542;11.974;2023-08-08T07:37:00;16.70;99.90
16958;DHT22;8595;52.542;11.974;2023-08-08T07:39:28;16.70;99.90
16958;DHT22;8595;52.542;11.974;2023-08-08T07:41:57;16.70;99.90
16958;DHT22;8595;52.542;11.974;2023-08-08T07:44:24;16.80;99.90
16958;DHT22;8595;52.542;11.974;2023-08-08T07:46:51;16.80;99.90
16958;DHT22;8595;52.542;11.974;2023-08-08T07:49:18;16.70;99.90
16958;DHT22;8595;52.542;11.974;2023-08-08T07:51:45;16.80;99.90
16958;DHT22;8595;52.542;11.974;2023-08-08T07:54:12;17.00;99.90
16958;DHT22;8595;52.542;11.974;2023-08-08T07:56:38;16.90;99.90
16958;DHT22;8595;52.542;11.974;2023-08-08T07:59:06;16.80;99.90
16958;DHT22;8595;52.542;11.974;2023-08-08T08:01:35;16.90;99.90
16958;DHT22;8595;52.542;11.974;2023-08-08T08:04:03;17.10;99.90
16958;DHT22;8595;52.542;11.974;2023-08-08T08:06:30;17.40;99.90
16958;DHT22;8595;52.542;11.974;2023-08-08T08:08:56;17.60;99.90
16958;DHT22;8595;52.542;11.974;2023-08-08T08:11:23;17.70;99.90
16958;DHT22;8595;52.542;11.974;2023-08-08T08:13:51;17.60;99.90
16958;DHT22;8595;52.542;11.974;2023-08-08T08:16:19;17.70;99.90
16958;DHT22;8595;52.542;11.974;2023-08-08T08:18:46;17.70;99.90
16958;DHT22;8595;52.542;11.974;2023-08-08T08:21:14;17.90;99.90
16958;DHT22;8595;52.542;11.974;2023-08-08T08:23:42;18.00;99.90
16958;DHT22;8595;52.542;11.974;2023-08-08T08:26:09;18.00;99.90
16958;DHT22;8595;52.542;11.974;2023-08-08T08:28:36;17.90;99.90
16958;DHT22;8595;52.542;11.974;2023-08-08T08:31:04;17.90;99.90
16958;DHT22;8595;52.542;11.974;2023-08-08T08:33:32;18.20;99.90
16958;DHT22;8595;52.542;11.974;2023-08-08T08:35:59;18.40;99.90
16958;DHT22;8595;52.542;11.974;2023-08-08T08:38:26;18.30;99.90
16958;DHT22;8595;52.542;11.974;2023-08-08T08:40:54;18.00;99.90
16958;DHT22;8595;52.542;11.974;2023-08-08T08:43:22;17.90;99.90
16958;DHT22;8595;52.542;11.974;2023-08-08T08:45:52;17.80;99.90
16958;DHT22;8595;52.542;11.974;2023-08-08T08:48:21;18.30;99.90
16958;DHT22;8595;52.542;11.974;2023-08-08T08:50:49;18.90;99.90
16958;DHT22;8595;52.542;11.974;2023-08-08T08:53:16;19.70;99.90
16958;DHT22;8595;52.542;11.974;2023-08-08T08:55:44;20.50;99.90
16958;DHT22;8595;52.542;11.974;2023-08-08T08:58:14;21.20;99.90
16958;DHT22;8595;52.542;11.974;2023-08-08T09:00:43;21.20;99.90
16958;DHT22;8595;52.542;11.974;2023-08-08T09:03:10;20.70;99.90
16958;DHT22;8595;52.542;11.974;2023-08-08T09:05:39;20.10;99.90
16958;DHT22;8595;52.542;11.974;2023-08-08T09:08:08;19.60;99.90
16958;DHT22;8595;52.542;11.974;2023-08-08T09:10:37;18.90;99.90
16958;DHT22;8595;52.542;11.974;2023-08-08T09:13:04;18.20;99.90
16958;DHT22;8595;52.542;11.974;2023-08-08T09:15:31;17.70;99.90
16958;DHT22;8595;52.542;11.974;2023-08-08T09:17:58;17.80;99.90
16958;DHT22;8595;52.542;11.974;2023-08-08T09:20:26;17.90;99.90
16958;DHT22;8595;52.542;11.974;2023-08-08T09:22:54;19.00;99.90
16958;DHT22;8595;52.542;11.974;2023-08-08T09:25:22;19.60;99.90
16958;DHT22;8595;52.542;11.974;2023-08-08T09:27:50;19.60;99.90
16958;DHT22;8595;52.542;11.974;2023-08-08T09:30:17;19.60;99.90
16958;DHT22;8595;52.542;11.974;2023-08-08T09:32:44;19.10;99.90
16958;DHT22;8595;52.542;11.974;2023-08-08T09:35:11;19.00;99.90
16958;DHT22;8595;52.542;11.974;2023-08-08T09:37:39;18.80;99.90
16958;DHT22;8595;52.542;11.974;2023-08-08T09:40:06;18.60;99.90
16958;DHT22;8595;52.542;11.974;2023-08-08T09:42:39;18.50;99.90
16958;DHT22;8595;52.542;11.974;2023-08-08T09:45:09;18.40;99.90
16958;DHT22;8595;52.542;11.974;2023-08-08T09:47:37;18.30;99.90
16958;DHT22;8595;52.542;11.974;2023-08-08T09:50:05;18.30;99.90
16958;DHT22;8595;52.542;11.974;2023-08-08T09:52:34;18.00;99.90
16958;DHT22;8595;52.542;11.974;2023-08-08T09:55:02;17.90;99.90
16958;DHT22;8595;52.542;11.974;2023-08-08T09:57:30;18.00;99.90
16958;DHT22;8595;52.542;11.974;2023-08-08T09:59:58;18.70;99.90
16958;DHT22;8595;52.542;11.974;2023-08-08T10:02:25;19.50;99.90
16958;DHT22;8595;52.542;11.974;2023-08-08T10:04:53;19.50;99.90
16958;DHT22;8595;52.542;11.974;2023-08-08T10:07:23;20.30;99.90
16958;DHT22;8595;52.542;11.974;2023-08-08T10:09:50;20.30;99.90
16958;DHT22;8595;52.542;11.974;2023-08-08T10:12:17;20.80;99.90
16958;DHT22;8595;52.542;11.974;2023-08-08T10:14:45;20.90;99.90
16958;DHT22;8595;52.542;11.974;2023-08-08T10:17:15;21.40;99.90
16958;DHT22;8595;52.542;11.974;2023-08-08T10:19:53;21.60;99.90
16958;DHT22;8595;52.542;11.974;2023-08-08T10:22:25;21.40;99.90
16958;DHT22;8595;52.542;11.974;2023-08-08T10:24:52;20.80;99.90
16958;DHT22;8595;52.542;11.974;2023-08-08T10:27:31;20.20;99.90
16958;DHT22;8595;52.542;11.974;2023-08-08T10:30:06;19.60;99.90
16958;DHT22;8595;52.542;11.974;2023-08-08T10:32:40;19.20;99.90
16958;DHT22;8595;52.542;11.974;2023-08-08T10:35:08;18.90;99.90
16958;DHT22;8595;52.542;11.974;2023-08-08T10:37:35;18.80;99.90
16958;DHT22;8595;52.542;11.974;2023-08-08T10:40:04;18.90;99.90
16958;DHT22;8595;52.542;11.974;2023-08-08T10:42:32;18.90;99.90
16958;DHT22;8595;52.542;11.974;2023-08-08T10:45:00;19.20;99.90
16958;DHT22;8595;52.542;11.974;2023-08-08T10:47:31;19.80;99.90
16958;DHT22;8595;52.542;11.974;2023-08-08T10:50:04;20.30;99.90
16958;DHT22;8595;52.542;11.974;2023-08-08T10:52:32;20.30;99.90
16958;DHT22;8595;52.542;11.974;2023-08-08T10:55:01;20.50;99.90
16958;DHT22;8595;52.542;11.974;2023-08-08T10:57:28;20.60;99.90
16958;DHT22;8595;52.542;11.974;2023-08-08T11:00:16;21.20;99.90
16958;DHT22;8595;52.542;11.974;2023-08-08T11:02:44;21.60;99.90
16958;DHT22;8595;52.542;11.974;2023-08-08T11:05:15;21.90;99.90
16958;DHT22;8595;52.542;11.974;2023-08-08T11:07:43;21.90;99.90
16958;DHT22;8595;52.542;11.974;2023-08-08T11:10:10;22.20;99.90
16958;DHT22;8595;52.542;11.974;2023-08-08T11:12:39;22.10;99.90
16958;DHT22;8595;52.542;11.974;2023-08-08T11:15:07;21.50;99.90
16958;DHT22;8595;52.542;11.974;2023-08-08T11:17:34;20.70;99.90
16958;DHT22;8595;52.542;11.974;2023-08-08T11:20:03;20.60;99.90
16958;DHT22;8595;52.542;11.974;2023-08-08T11:22:31;20.30;99.90
16958;DHT22;8595;52.542;11.974;2023-08-08T11:24:58;20.20;99.90
16958;DHT22;8595;52.542;11.974;2023-08-08T11:27:28;20.10;99.90
16958;DHT22;8595;52.542;11.974;2023-08-08T11:29:56;20.10;99.90
16958;DHT22;8595;52.542;11.974;2023-08-08T11:32:25;19.80;99.90
16958;DHT22;8595;52.542;11.974;2023-08-08T11:34:54;20.10;99.90
16958;DHT22;8595;52.542;11.974;2023-08-08T11:37:22;20.70;99.90
16958;DHT22;8595;52.542;11.974;2023-08-08T11:39:50;21.10;99.90
16958;DHT22;8595;52.542;11.974;2023-08-08T11:42:17;21.30;99.90
16958;DHT22;8595;52.542;11.974;2023-08-08T11:44:44;21.90;99.90
16958;DHT22;8595;52.542;11.974;2023-08-08T11:47:10;22.10;99.90
16958;DHT22;8595;52.542;11.974;2023-08-08T11:49:41;22.30;99.90
16958;DHT22;8595;52.542;11.974;2023-08-08T11:52:08;22.50;99.90
16958;DHT22;8595;52.542;11.974;2023-08-08T11:54:39;22.20;99.90
16958;DHT22;8595;52.542;11.974;2023-08-08T11:57:08;21.60;99.90
16958;DHT22;8595;52.542;11.974;2023-08-08T11:59:35;21.20;99.90
16958;DHT22;8595;52.542;11.974;2023-08-08T12:02:04;20.60;99.90
16958;DHT22;8595;52.542;11.974;2023-08-08T12:04:33;20.10;99.90
16958;DHT22;8595;52.542;11.974;2023-08-08T12:07:03;19.80;99.90
16958;DHT22;8595;52.542;11.974;2023-08-08T12:09:31;19.60;99.90
16958;DHT22;8595;52.542;11.974;2023-08-08T12:11:59;19.60;99.90
16958;DHT22;8595;52.542;11.974;2023-08-08T12:14:27;19.20;99.90
16958;DHT22;8595;52.542;11.974;2023-08-08T12:16:55;18.90;99.90
16958;DHT22;8595;52.542;11.974;2023-08-08T12:19:24;18.80;99.90
16958;DHT22;8595;52.542;11.974;2023-08-08T12:21:51;18.80;99.90
16958;DHT22;8595;52.542;11.974;2023-08-08T12:24:18;18.60;99.90
16958;DHT22;8595;52.542;11.974;2023-08-08T12:26:45;18.60;99.90
16958;DHT22;8595;52.542;11.974;2023-08-08T12:29:12;18.90;99.90
16958;DHT22;8595;52.542;11.974;2023-08-08T12:31:40;18.80;99.90
16958;DHT22;8595;52.542;11.974;2023-08-08T12:34:07;18.90;99.90
16958;DHT22;8595;52.542;11.974;2023-08-08T12:36:35;19.10;99.90
16958;DHT22;8595;52.542;11.974;2023-08-08T12:39:02;20.00;99.90
16958;DHT22;8595;52.542;11.974;2023-08-08T12:41:30;20.20;99.90
16958;DHT22;8595;52.542;11.974;2023-08-08T12:43:57;20.10;99.90
16958;DHT22;8595;52.542;11.974;2023-08-08T12:46:24;19.60;99.90
16958;DHT22;8595;52.542;11.974;2023-08-08T12:48:53;19.50;99.90
16958;DHT22;8595;52.542;11.974;2023-08-08T12:51:20;19.50;99.90
16958;DHT22;8595;52.542;11.974;2023-08-08T12:53:46;19.80;99.90
16958;DHT22;8595;52.542;11.974;2023-08-08T12:56:14;20.40;99.90
16958;DHT22;8595;52.542;11.974;2023-08-08T12:58:41;20.50;99.90
16958;DHT22;8595;52.542;11.974;2023-08-08T13:01:07;20.50;99.90
16958;DHT22;8595;52.542;11.974;2023-08-08T13:03:34;21.20;99.90
16958;DHT22;8595;52.542;11.974;2023-08-08T13:06:03;21.50;99.90
16958;DHT22;8595;52.542;11.974;2023-08-08T13:08:30;21.60;99.90
16958;DHT22;8595;52.542;11.974;2023-08-08T13:10:58;21.80;99.90
16958;DHT22;8595;52.542;11.974;2023-08-08T13:13:25;22.40;99.90
16958;DHT22;8595;52.542;11.974;2023-08-08T13:15:52;22.60;99.90
16958;DHT22;8595;52.542;11.974;2023-08-08T13:18:19;22.70;99.90
16958;DHT22;8595;52.542;11.974;2023-08-08T13:20:46;22.90;99.90
16958;DHT22;8595;52.542;11.974;2023-08-08T13:23:14;23.00;99.90
16958;DHT22;8595;52.542;11.974;2023-08-08T13:25:41;23.30;99.90
16958;DHT22;8595;52.542;11.974;2023-08-08T13:28:11;23.30;99.90
16958;DHT22;8595;52.542;11.974;2023-08-08T13:30:40;23.50;99.90
16958;DHT22;8595;52.542;11.974;2023-08-08T13:33:08;23.20;99.90
16958;DHT22;8595;52.542;11.974;2023-08-08T13:35:35;23.00;99.90
16958;DHT22;8595;52.542;11.974;2023-08-08T13:38:02;23.00;99.90
16958;DHT22;8595;52.542;11.974;2023-08-08T13:40:31;23.50;99.90
16958;DHT22;8595;52.542;11.974;2023-08-08T13:42:57;24.10;99.90
16958;DHT22;8595;52.542;11.974;2023-08-08T13:45:24;23.70;99.90
16958;DHT22;8595;52.542;11.974;2023-08-08T13:47:51;23.00;99.90
16958;DHT22;8595;52.542;11.974;2023-08-08T13:50:18;22.50;99.90
16958;DHT22;8595;52.542;11.974;2023-08-08T13:52:45;22.20;99.90
16958;DHT22;8595;52.542;11.974;2023-08-08T13:55:12;21.80;99.90
16958;DHT22;8595;52.542;11.974;2023-08-08T13:57:40;21.50;99.90
16958;DHT22;8595;52.542;11.974;2023-08-08T14:00:08;21.30;99.90
16958;DHT22;8595;52.542;11.974;2023-08-08T14:02:37;20.90;99.90
16958;DHT22;8595;52.542;11.974;2023-08-08T14:05:05;20.70;99.90
16958;DHT22;8595;52.542;11.974;2023-08-08T14:07:32;20.80;99.90
16958;DHT22;8595;52.542;11.974;2023-08-08T14:09:59;20.90;99.90
16958;DHT22;8595;52.542;11.974;2023-08-08T14:12:26;20.80;99.90
16958;DHT22;8595;52.542;11.974;2023-08-08T14:14:55;20.70;99.90
16958;DHT22;8595;52.542;11.974;2023-08-08T14:17:22;20.40;99.90
16958;DHT22;8595;52.542;11.974;2023-08-08T14:19:49;20.00;99.90
16958;DHT22;8595;52.542;11.974;2023-08-08T14:22:19;19.80;99.90
16958;DHT22;8595;52.542;11.974;2023-08-08T14:24:46;19.80;99.90
16958;DHT22;8595;52.542;11.974;2023-08-08T14:27:13;19.40;99.90
16958;DHT22;8595;52.542;11.974;2023-08-08T14:29:39;18.90;99.90
16958;DHT22;8595;52.542;11.974;2023-08-08T14:32:07;18.70;99.90
16958;DHT22;8595;52.542;11.974;2023-08-08T14:34:37;18.60;99.90
16958;DHT22;8595;52.542;11.974;2023-08-08T14:37:05;18.80;99.90
16958;DHT22;8595;52.542;11.974;2023-08-08T14:39:32;19.50;99.90
16958;DHT22;8595;52.542;11.974;2023-08-08T14:42:01;20.20;99.90
16958;DHT22;8595;52.542;11.974;2023-08-08T14:44:28;21.10;99.90
16958;DHT22;8595;52.542;11.974;2023-08-08T14:46:54;22.00;99.90
16958;DHT22;8595;52.542;11.974;2023-08-08T14:49:26;22.80;99.90
16958;DHT22;8595;52.542;11.974;2023-08-08T14:51:52;22.80;99.90
16958;DHT22;8595;52.542;11.974;2023-08-08T14:54:19;22.40;99.90
16958;DHT22;8595;52.542;11.974;2023-08-08T14:56:46;21.90;99.90
16958;DHT22;8595;52.542;11.974;2023-08-08T14:59:15;21.30;99.90
16958;DHT22;8595;52.542;11.974;2023-08-08T15:01:42;20.90;99.90
16958;DHT22;8595;52.542;11.974;2023-08-08T15:04:08;20.60;99.90
16958;DHT22;8595;52.542;11.974;2023-08-08T15:06:37;20.20;99.90
16958;DHT22;8595;52.542;11.974;2023-08-08T15:09:04;20.10;99.90
16958;DHT22;8595;52.542;11.974;2023-08-08T15:11:34;18.40;99.90
16958;DHT22;8595;52.542;11.974;2023-08-08T15:14:01;16.60;99.90
16958;DHT22;8595;52.542;11.974;2023-08-08T15:16:28;15.00;99.90
16958;DHT22;8595;52.542;11.974;2023-08-08T15:18:55;14.50;99.90
16958;DHT22;8595;52.542;11.974;2023-08-08T15:21:22;14.40;99.90
16958;DHT22;8595;52.542;11.974;2023-08-08T15:23:50;14.50;99.90
16958;DHT22;8595;52.542;11.974;2023-08-08T15:26:17;14.70;99.90
16958;DHT22;8595;52.542;11.974;2023-08-08T15:28:47;15.00;99.90
16958;DHT22;8595;52.542;11.974;2023-08-08T15:31:14;15.40;99.90
16958;DHT22;8595;52.542;11.974;2023-08-08T15:33:41;15.60;99.90